createdAt,value
2022-07-29T00:00:33.569Z,40.77
2022-07-29T00:01:33.551Z,42.22
2022-07-29T00:02:33.613Z,42.22
2022-07-29T00:03:33.600Z,40.61
2022-07-29T00:04:33.591Z,55.43
2022-07-29T00:05:33.669Z,41.89
2022-07-29T00:06:33.545Z,40.12
2022-07-29T00:07:33.583Z,40.28
2022-07-29T00:08:33.518Z,40.44
2022-07-29T00:09:33.502Z,42.06
2022-07-29T00:10:34.524Z,41.57
2022-07-29T00:11:33.518Z,42.06
2022-07-29T00:12:33.478Z,57.85
2022-07-29T00:13:33.470Z,50.43
2022-07-29T00:14:33.514Z,43.51
2022-07-29T00:15:33.485Z,49.79
2022-07-29T00:16:34.614Z,44.15
2022-07-29T00:17:33.496Z,49.95
2022-07-29T00:18:33.488Z,44.31
2022-07-29T00:19:33.435Z,50.60
2022-07-29T00:20:33.425Z,41.09
2022-07-29T00:21:33.438Z,43.51
2022-07-29T00:22:33.427Z,52.05
2022-07-29T00:23:36.723Z,41.41
2022-07-29T00:24:34.403Z,49.31
2022-07-29T00:25:33.933Z,44.96
2022-07-29T00:26:33.472Z,48.82
2022-07-29T00:27:33.383Z,44.96
2022-07-29T00:28:33.398Z,47.05
2022-07-29T00:29:34.653Z,42.22
2022-07-29T00:30:34.381Z,51.08
2022-07-29T00:31:33.458Z,52.21
2022-07-29T00:32:33.424Z,40.61
2022-07-29T00:33:33.350Z,50.43
2022-07-29T00:34:33.386Z,41.89
2022-07-29T00:35:33.329Z,44.15
2022-07-29T00:36:33.388Z,44.31
2022-07-29T00:37:33.317Z,51.08
2022-07-29T00:38:33.371Z,52.21
2022-07-29T00:39:33.316Z,44.63
2022-07-29T00:40:34.310Z,41.09
2022-07-29T00:41:33.329Z,41.41
2022-07-29T00:42:33.308Z,47.05
2022-07-29T00:43:33.310Z,45.92
2022-07-29T00:44:33.306Z,44.79
2022-07-29T00:45:33.267Z,42.86
2022-07-29T00:46:33.304Z,49.15
2022-07-29T00:47:33.265Z,40.61
2022-07-29T00:48:33.261Z,42.86
2022-07-29T00:49:33.272Z,42.38
2022-07-29T00:50:33.260Z,40.28
2022-07-29T00:51:33.238Z,40.44
2022-07-29T00:52:33.211Z,41.09
2022-07-29T00:53:33.282Z,41.89
2022-07-29T00:54:33.217Z,40.93
2022-07-29T00:55:33.231Z,40.93
2022-07-29T00:56:33.209Z,41.89
2022-07-29T00:57:33.202Z,42.86
2022-07-29T00:58:33.165Z,42.54
2022-07-29T00:59:35.228Z,41.41
2022-07-29T01:00:33.296Z,41.89
2022-07-29T01:01:33.497Z,41.25
2022-07-29T01:02:33.211Z,42.54
2022-07-29T01:03:33.190Z,41.25
2022-07-29T01:04:33.196Z,45.92
2022-07-29T01:05:51.559Z,44.31
2022-07-29T01:06:34.126Z,42.38
2022-07-29T01:07:33.132Z,44.15
2022-07-29T01:08:33.173Z,42.86
2022-07-29T01:09:42.049Z,41.57
2022-07-29T01:10:34.153Z,41.09
2022-07-29T01:11:33.150Z,49.63
2022-07-29T01:12:33.135Z,48.82
2022-07-29T01:13:33.092Z,43.18
2022-07-29T01:14:33.088Z,41.09
2022-07-29T01:15:33.057Z,53.17
2022-07-29T01:16:33.235Z,40.77
2022-07-29T01:17:33.072Z,41.57
2022-07-29T01:18:33.036Z,40.93
2022-07-29T01:19:33.047Z,50.92
2022-07-29T01:20:33.016Z,47.53
2022-07-29T01:21:33.063Z,45.92
2022-07-29T01:22:33.018Z,40.93
2022-07-29T01:23:33.045Z,40.93
2022-07-29T01:24:33.039Z,41.89
2022-07-29T01:25:33.010Z,45.60
2022-07-29T01:26:33.020Z,42.54
2022-07-29T01:27:33.093Z,43.51
2022-07-29T01:28:33.407Z,48.50
2022-07-29T01:29:38.981Z,41.09
2022-07-29T01:30:34.034Z,40.93
2022-07-29T01:31:33.031Z,40.93
2022-07-29T01:32:33.028Z,41.41
2022-07-29T01:33:32.964Z,41.09
2022-07-29T01:34:32.963Z,49.31
2022-07-29T01:35:33.017Z,45.60
2022-07-29T01:36:32.940Z,41.89
2022-07-29T01:37:32.918Z,44.31
2022-07-29T01:38:32.890Z,45.76
2022-07-29T01:39:33.366Z,42.22
2022-07-29T01:40:32.919Z,45.44
2022-07-29T01:41:32.894Z,54.95
2022-07-29T01:42:32.895Z,59.94
2022-07-29T01:43:32.894Z,44.15
2022-07-29T01:44:32.914Z,42.86
2022-07-29T01:45:32.894Z,41.41
2022-07-29T01:46:32.995Z,40.93
2022-07-29T01:47:32.872Z,41.09
2022-07-29T01:48:32.858Z,42.70
2022-07-29T01:49:32.870Z,41.57
2022-07-29T01:50:33.868Z,51.40
2022-07-29T01:51:32.857Z,43.99
2022-07-29T01:52:32.821Z,48.98
2022-07-29T01:53:34.770Z,41.57
2022-07-29T01:54:33.806Z,43.02
2022-07-29T01:55:32.813Z,41.41
2022-07-29T01:56:32.788Z,41.09
2022-07-29T01:57:32.819Z,42.22
2022-07-29T01:58:32.884Z,45.44
2022-07-29T01:59:32.768Z,42.38
2022-07-29T02:00:32.819Z,41.57
2022-07-29T02:01:32.828Z,42.38
2022-07-29T02:02:32.779Z,45.92
2022-07-29T02:03:32.762Z,49.79
2022-07-29T02:04:32.751Z,51.72
2022-07-29T02:05:32.770Z,43.18
2022-07-29T02:06:32.749Z,42.38
2022-07-29T02:07:32.758Z,47.21
2022-07-29T02:08:32.730Z,57.04
2022-07-29T02:09:32.709Z,44.15
2022-07-29T02:10:32.742Z,43.02
2022-07-29T02:11:32.720Z,43.99
2022-07-29T02:12:32.743Z,48.82
2022-07-29T02:13:32.722Z,45.76
2022-07-29T02:14:32.748Z,44.96
2022-07-29T02:15:32.757Z,47.37
2022-07-29T02:16:32.750Z,43.34
2022-07-29T02:17:32.682Z,47.86
2022-07-29T02:18:33.676Z,47.37
2022-07-29T02:19:32.661Z,52.37
2022-07-29T02:20:32.653Z,44.31
2022-07-29T02:21:32.632Z,44.96
2022-07-29T02:22:32.635Z,50.60
2022-07-29T02:23:32.651Z,46.08
2022-07-29T02:24:33.627Z,46.41
2022-07-29T02:25:38.117Z,57.69
2022-07-29T02:26:33.662Z,45.76
2022-07-29T02:27:32.596Z,50.60
2022-07-29T02:28:32.572Z,46.25
2022-07-29T02:29:32.594Z,45.44
2022-07-29T02:30:32.604Z,49.15
2022-07-29T02:31:32.700Z,45.28
2022-07-29T02:32:32.581Z,43.67
2022-07-29T02:33:32.582Z,43.02
2022-07-29T02:34:32.624Z,47.70
2022-07-29T02:35:34.579Z,45.12
2022-07-29T02:36:32.574Z,43.34
2022-07-29T02:37:32.541Z,46.89
2022-07-29T02:38:32.571Z,51.08
2022-07-29T02:39:32.616Z,48.82
2022-07-29T02:40:32.570Z,43.34
2022-07-29T02:41:32.543Z,43.51
2022-07-29T02:42:32.535Z,46.73
2022-07-29T02:43:32.507Z,49.47
2022-07-29T02:44:34.715Z,48.82
2022-07-29T02:45:33.508Z,49.47
2022-07-29T02:46:32.534Z,43.67
2022-07-29T02:47:42.081Z,43.83
2022-07-29T02:48:33.472Z,43.18
2022-07-29T02:49:32.492Z,48.18
2022-07-29T02:50:32.487Z,44.31
2022-07-29T02:51:43.794Z,42.38
2022-07-29T02:52:33.487Z,42.86
2022-07-29T02:53:32.460Z,46.08
2022-07-29T02:54:32.480Z,52.69
2022-07-29T02:55:32.421Z,49.79
2022-07-29T02:56:32.405Z,47.86
2022-07-29T02:57:32.433Z,47.53
2022-07-29T02:58:32.434Z,42.86
2022-07-29T02:59:32.395Z,49.79
2022-07-29T03:00:32.453Z,47.86
2022-07-29T03:01:32.426Z,54.14
2022-07-29T03:02:32.400Z,56.40
2022-07-29T03:03:32.371Z,48.18
2022-07-29T03:04:32.449Z,46.73
2022-07-29T03:05:32.386Z,45.12
2022-07-29T03:06:38.410Z,45.76
2022-07-29T03:07:33.356Z,42.22
2022-07-29T03:08:32.392Z,42.06
2022-07-29T03:09:32.360Z,43.18
2022-07-29T03:10:32.334Z,46.25
2022-07-29T03:11:46.145Z,57.20
2022-07-29T03:12:33.302Z,45.44
2022-07-29T03:13:32.342Z,57.52
2022-07-29T03:14:32.317Z,54.14
2022-07-29T03:15:32.322Z,57.36
2022-07-29T03:16:32.368Z,48.50
2022-07-29T03:17:32.322Z,54.14
2022-07-29T03:18:32.289Z,53.50
2022-07-29T03:19:32.266Z,51.56
2022-07-29T03:20:32.269Z,50.11
2022-07-29T03:21:32.240Z,50.76
2022-07-29T03:22:32.286Z,54.46
2022-07-29T03:23:35.200Z,53.98
2022-07-29T03:24:32.253Z,46.57
2022-07-29T03:25:32.240Z,48.18
2022-07-29T03:26:32.241Z,61.87
2022-07-29T03:27:32.230Z,61.39
2022-07-29T03:28:32.295Z,52.21
2022-07-29T03:29:34.070Z,61.39
2022-07-29T03:30:32.299Z,59.46
2022-07-29T03:31:33.353Z,59.14
2022-07-29T03:32:32.187Z,58.65
2022-07-29T03:33:32.241Z,59.46
2022-07-29T03:34:32.250Z,58.65
2022-07-29T03:35:32.201Z,59.62
2022-07-29T03:36:32.167Z,59.78
2022-07-29T03:37:32.176Z,58.81
2022-07-29T03:38:32.196Z,58.81
2022-07-29T03:39:32.186Z,59.62
2022-07-29T03:40:32.163Z,65.58
2022-07-29T03:41:32.176Z,55.11
2022-07-29T03:42:34.299Z,55.59
2022-07-29T03:43:33.128Z,51.72
2022-07-29T03:44:32.142Z,54.62
2022-07-29T03:45:32.114Z,58.81
2022-07-29T03:46:32.340Z,54.62
2022-07-29T03:47:49.787Z,52.21
2022-07-29T03:48:33.137Z,48.02
2022-07-29T03:49:32.138Z,54.14
2022-07-29T03:50:32.089Z,55.27
2022-07-29T03:51:33.714Z,50.76
2022-07-29T03:52:32.109Z,51.56
2022-07-29T03:53:32.073Z,45.28
2022-07-29T03:54:32.036Z,53.66
2022-07-29T03:55:32.067Z,59.78
2022-07-29T03:56:32.075Z,51.72
2022-07-29T03:57:32.050Z,52.69
2022-07-29T03:58:32.012Z,53.82
2022-07-29T03:59:32.019Z,51.88
2022-07-29T04:00:32.031Z,52.21
2022-07-29T04:01:32.109Z,49.79
2022-07-29T04:02:32.153Z,55.11
2022-07-29T04:03:32.105Z,55.91
2022-07-29T04:04:32.007Z,54.62
2022-07-29T04:05:32.019Z,48.34
2022-07-29T04:06:32.011Z,51.24
2022-07-29T04:07:32.017Z,53.17
2022-07-29T04:08:31.976Z,54.79
2022-07-29T04:09:32.034Z,57.52
2022-07-29T04:10:32.316Z,55.75
2022-07-29T04:11:32.051Z,54.62
2022-07-29T04:12:31.945Z,57.85
2022-07-29T04:13:31.959Z,54.79
2022-07-29T04:14:32.933Z,55.75
2022-07-29T04:15:32.081Z,54.62
2022-07-29T04:16:32.043Z,63.49
2022-07-29T04:17:31.907Z,56.24
2022-07-29T04:18:31.932Z,56.07
2022-07-29T04:19:32.267Z,58.33
2022-07-29T04:20:31.921Z,57.20
2022-07-29T04:21:31.940Z,57.04
2022-07-29T04:22:31.877Z,54.95
2022-07-29T04:23:31.915Z,52.05
2022-07-29T04:24:31.876Z,53.33
2022-07-29T04:25:31.893Z,51.88
2022-07-29T04:26:31.881Z,52.05
2022-07-29T04:27:31.851Z,55.75
2022-07-29T04:28:31.935Z,53.50
2022-07-29T04:29:31.822Z,54.79
2022-07-29T04:30:31.829Z,56.72
2022-07-29T04:31:31.876Z,49.15
2022-07-29T04:32:31.852Z,54.14
2022-07-29T04:33:32.878Z,56.24
2022-07-29T04:34:31.797Z,53.98
2022-07-29T04:35:38.391Z,55.27
2022-07-29T04:36:32.796Z,51.08
2022-07-29T04:37:31.773Z,50.11
2022-07-29T04:38:31.858Z,57.69
2022-07-29T04:39:31.764Z,63.49
2022-07-29T04:40:31.790Z,54.46
2022-07-29T04:41:33.382Z,56.88
2022-07-29T04:42:31.738Z,48.82
2022-07-29T04:43:36.651Z,48.82
2022-07-29T04:44:32.756Z,52.05
2022-07-29T04:45:31.736Z,53.01
2022-07-29T04:46:31.741Z,55.11
2022-07-29T04:47:31.728Z,58.97
2022-07-29T04:48:31.712Z,57.36
2022-07-29T04:49:31.796Z,56.88
2022-07-29T04:50:31.770Z,56.72
2022-07-29T04:51:31.784Z,52.05
2022-07-29T04:52:31.691Z,51.88
2022-07-29T04:53:31.663Z,59.78
2022-07-29T04:54:31.669Z,55.11
2022-07-29T04:55:31.656Z,59.62
2022-07-29T04:56:31.700Z,53.66
2022-07-29T04:57:31.665Z,51.72
2022-07-29T04:58:31.686Z,53.66
2022-07-29T04:59:31.642Z,54.95
2022-07-29T05:00:33.263Z,57.69
2022-07-29T05:01:31.725Z,58.01
2022-07-29T05:02:31.646Z,59.30
2022-07-29T05:03:31.613Z,60.59
2022-07-29T05:04:31.628Z,59.46
2022-07-29T05:05:31.597Z,56.88
2022-07-29T05:06:31.641Z,48.18
2022-07-29T05:07:31.658Z,56.40
2022-07-29T05:08:31.581Z,54.62
2022-07-29T05:09:31.595Z,54.14
2022-07-29T05:10:31.592Z,53.66
2022-07-29T05:11:31.551Z,52.85
2022-07-29T05:12:31.573Z,56.40
2022-07-29T05:13:45.801Z,56.56
2022-07-29T05:14:32.595Z,56.56
2022-07-29T05:15:31.603Z,54.62
2022-07-29T05:16:31.533Z,54.14
2022-07-29T05:17:31.549Z,55.27
2022-07-29T05:18:31.545Z,56.56
2022-07-29T05:19:31.509Z,59.30
2022-07-29T05:20:31.511Z,54.62
2022-07-29T05:21:31.519Z,55.27
2022-07-29T05:22:31.551Z,59.14
2022-07-29T05:23:31.506Z,61.87
2022-07-29T05:24:31.505Z,58.97
2022-07-29T05:25:43.069Z,55.59
2022-07-29T05:26:32.473Z,59.62
2022-07-29T05:27:31.456Z,55.27
2022-07-29T05:28:31.496Z,58.81
2022-07-29T05:29:44.268Z,56.24
2022-07-29T05:30:32.575Z,55.59
2022-07-29T05:31:31.499Z,56.72
2022-07-29T05:32:31.427Z,55.11
2022-07-29T05:33:35.488Z,56.88
2022-07-29T05:34:32.438Z,49.79
2022-07-29T05:35:31.534Z,58.33
2022-07-29T05:36:31.476Z,53.17
2022-07-29T05:37:31.392Z,55.27
2022-07-29T05:38:31.384Z,56.07
2022-07-29T05:39:47.125Z,58.81
2022-07-29T05:40:32.412Z,46.73
2022-07-29T05:41:32.292Z,57.36
2022-07-29T05:42:31.396Z,53.50
2022-07-29T05:43:31.374Z,51.08
2022-07-29T05:44:31.389Z,50.27
2022-07-29T05:45:31.425Z,51.72
2022-07-29T05:46:31.537Z,55.59
2022-07-29T05:47:31.347Z,52.69
2022-07-29T05:48:31.411Z,57.69
2022-07-29T05:49:31.371Z,55.59
2022-07-29T05:50:31.327Z,55.91
2022-07-29T05:51:31.383Z,56.72
2022-07-29T05:52:31.326Z,52.05
2022-07-29T05:53:31.334Z,55.75
2022-07-29T05:54:31.338Z,58.17
2022-07-29T05:55:31.425Z,58.17
2022-07-29T05:56:31.328Z,61.23
2022-07-29T05:57:31.425Z,55.59
2022-07-29T05:58:31.277Z,56.56
2022-07-29T05:59:31.282Z,56.40
2022-07-29T06:00:31.254Z,59.62
2022-07-29T06:01:31.332Z,51.56
2022-07-29T06:02:31.249Z,60.75
2022-07-29T06:03:31.333Z,56.07
2022-07-29T06:04:31.337Z,56.24
2022-07-29T06:05:31.220Z,52.85
2022-07-29T06:06:32.376Z,56.88
2022-07-29T06:07:31.322Z,56.56
2022-07-29T06:08:31.246Z,54.95
2022-07-29T06:09:31.293Z,64.29
2022-07-29T06:10:31.254Z,57.52
2022-07-29T06:11:31.303Z,57.36
2022-07-29T06:12:31.338Z,56.40
2022-07-29T06:13:31.175Z,57.36
2022-07-29T06:14:31.157Z,56.24
2022-07-29T06:15:31.155Z,57.85
2022-07-29T06:16:31.189Z,61.39
2022-07-29T06:17:31.168Z,59.94
2022-07-29T06:18:31.167Z,58.17
2022-07-29T06:19:31.130Z,57.69
2022-07-29T06:20:31.608Z,58.81
2022-07-29T06:21:31.129Z,55.27
2022-07-29T06:22:31.114Z,56.24
2022-07-29T06:23:31.168Z,58.33
2022-07-29T06:24:31.124Z,55.75
2022-07-29T06:25:31.082Z,59.30
2022-07-29T06:26:33.330Z,60.91
2022-07-29T06:27:31.097Z,59.78
2022-07-29T06:28:31.084Z,57.85
2022-07-29T06:29:31.105Z,58.97
2022-07-29T06:30:31.116Z,59.62
2022-07-29T06:31:31.045Z,60.75
2022-07-29T06:32:31.072Z,59.62
2022-07-29T06:33:31.036Z,57.85
2022-07-29T06:34:31.164Z,63.49
2022-07-29T06:35:41.190Z,61.71
2022-07-29T06:36:33.025Z,55.91
2022-07-29T06:37:31.035Z,58.33
2022-07-29T06:38:34.367Z,60.75
2022-07-29T06:39:33.009Z,58.17
2022-07-29T06:40:31.018Z,59.62
2022-07-29T06:41:31.043Z,58.81
2022-07-29T06:42:30.983Z,59.78
2022-07-29T06:43:31.993Z,58.97
2022-07-29T06:44:30.964Z,59.30
2022-07-29T06:45:30.963Z,62.04
2022-07-29T06:46:31.077Z,59.78
2022-07-29T06:47:30.988Z,63.49
2022-07-29T06:48:30.971Z,60.10
2022-07-29T06:49:30.954Z,58.49
2022-07-29T06:50:30.952Z,60.75
2022-07-29T06:51:30.949Z,55.59
2022-07-29T06:52:30.952Z,62.04
2022-07-29T06:53:30.900Z,58.97
2022-07-29T06:54:30.974Z,62.04
2022-07-29T06:55:30.884Z,63.33
2022-07-29T06:56:30.897Z,63.81
2022-07-29T06:57:30.959Z,64.29
2022-07-29T06:58:30.896Z,61.87
2022-07-29T06:59:35.234Z,60.26
2022-07-29T07:00:31.888Z,61.87
2022-07-29T07:01:31.585Z,59.46
2022-07-29T07:02:31.145Z,56.88
2022-07-29T07:03:30.844Z,58.01
2022-07-29T07:04:30.846Z,54.95
2022-07-29T07:05:30.844Z,54.14
2022-07-29T07:06:30.874Z,58.81
2022-07-29T07:07:30.814Z,58.81
2022-07-29T07:08:30.834Z,60.59
2022-07-29T07:09:39.841Z,59.30
2022-07-29T07:10:31.838Z,56.88
2022-07-29T07:11:30.804Z,62.04
2022-07-29T07:12:30.816Z,60.59
2022-07-29T07:13:30.804Z,62.04
2022-07-29T07:14:30.790Z,58.81
2022-07-29T07:15:39.703Z,59.78
2022-07-29T07:16:32.072Z,61.55
2022-07-29T07:17:30.853Z,59.30
2022-07-29T07:18:30.800Z,59.94
2022-07-29T07:19:30.747Z,57.36
2022-07-29T07:20:30.779Z,61.87
2022-07-29T07:21:31.099Z,58.33
2022-07-29T07:22:33.422Z,60.42
2022-07-29T07:23:30.960Z,58.17
2022-07-29T07:24:30.761Z,55.43
2022-07-29T07:25:30.932Z,56.40
2022-07-29T07:26:30.741Z,63.33
2022-07-29T07:27:30.807Z,56.07
2022-07-29T07:28:30.753Z,54.30
2022-07-29T07:29:30.700Z,53.17
2022-07-29T07:30:30.750Z,60.26
2022-07-29T07:31:30.762Z,56.88
2022-07-29T07:32:30.697Z,55.59
2022-07-29T07:33:30.684Z,57.52
2022-07-29T07:34:30.687Z,70.09
2022-07-29T07:35:30.809Z,57.85
2022-07-29T07:36:30.688Z,53.01
2022-07-29T07:37:30.634Z,58.01
2022-07-29T07:38:30.687Z,55.59
2022-07-29T07:39:30.877Z,57.69
2022-07-29T07:40:30.637Z,57.69
2022-07-29T07:41:32.341Z,56.24
2022-07-29T07:42:30.621Z,58.33
2022-07-29T07:43:31.527Z,61.07
2022-07-29T07:44:30.664Z,58.81
2022-07-29T07:45:30.665Z,57.04
2022-07-29T07:46:30.601Z,54.95
2022-07-29T07:47:30.586Z,59.30
2022-07-29T07:48:30.582Z,55.27
2022-07-29T07:49:30.784Z,64.78
2022-07-29T07:50:30.576Z,50.43
2022-07-29T07:51:30.589Z,54.62
2022-07-29T07:52:30.562Z,54.62
2022-07-29T07:53:30.570Z,54.79
2022-07-29T07:54:30.554Z,51.56
2022-07-29T07:55:42.442Z,54.79
2022-07-29T07:56:35.147Z,58.65
2022-07-29T07:57:31.529Z,53.01
2022-07-29T07:58:30.511Z,56.40
2022-07-29T07:59:30.518Z,54.62
2022-07-29T08:00:31.526Z,56.07
2022-07-29T08:01:30.527Z,55.91
2022-07-29T08:02:31.506Z,50.92
2022-07-29T08:03:30.522Z,56.56
2022-07-29T08:04:30.456Z,53.82
2022-07-29T08:05:30.500Z,63.33
2022-07-29T08:06:30.539Z,61.87
2022-07-29T08:07:30.461Z,55.75
2022-07-29T08:08:30.444Z,55.11
2022-07-29T08:09:30.759Z,53.82
2022-07-29T08:10:30.436Z,54.14
2022-07-29T08:11:30.530Z,56.72
2022-07-29T08:12:30.427Z,55.75
2022-07-29T08:13:30.406Z,54.14
2022-07-29T08:14:30.442Z,55.11
2022-07-29T08:15:30.393Z,59.30
2022-07-29T08:16:30.433Z,57.20
2022-07-29T08:17:30.514Z,56.24
2022-07-29T08:18:30.420Z,56.72
2022-07-29T08:19:30.397Z,54.79
2022-07-29T08:20:31.070Z,58.33
2022-07-29T08:21:30.397Z,61.39
2022-07-29T08:22:30.441Z,61.87
2022-07-29T08:23:47.177Z,56.88
2022-07-29T08:24:33.808Z,50.92
2022-07-29T08:25:30.383Z,55.27
2022-07-29T08:26:30.378Z,53.17
2022-07-29T08:27:44.927Z,55.11
2022-07-29T08:28:32.316Z,56.72
2022-07-29T08:29:30.344Z,58.65
2022-07-29T08:30:30.285Z,56.56
2022-07-29T08:31:30.349Z,56.88
2022-07-29T08:32:52.477Z,55.75
2022-07-29T08:33:32.326Z,53.82
2022-07-29T08:34:30.306Z,56.24
2022-07-29T08:35:35.065Z,54.62
2022-07-29T08:36:32.278Z,56.07
2022-07-29T08:37:30.258Z,58.81
2022-07-29T08:38:30.259Z,56.40
2022-07-29T08:39:30.264Z,56.88
2022-07-29T08:40:31.916Z,52.69
2022-07-29T08:41:30.251Z,53.82
2022-07-29T08:42:30.215Z,60.75
2022-07-29T08:43:30.282Z,56.56
2022-07-29T08:44:31.187Z,55.75
2022-07-29T08:45:30.257Z,57.52
2022-07-29T08:46:30.172Z,55.27
2022-07-29T08:47:30.232Z,55.43
2022-07-29T08:48:30.223Z,62.52
2022-07-29T08:49:31.497Z,53.82
2022-07-29T08:50:30.215Z,64.45
2022-07-29T08:51:30.191Z,62.84
2022-07-29T08:52:30.155Z,57.20
2022-07-29T08:53:30.193Z,52.69
2022-07-29T08:54:30.138Z,54.62
2022-07-29T08:55:30.149Z,60.75
2022-07-29T08:56:30.194Z,57.04
2022-07-29T08:57:30.234Z,57.20
2022-07-29T08:58:30.146Z,52.21
2022-07-29T08:59:30.095Z,56.56
2022-07-29T09:00:30.145Z,58.33
2022-07-29T09:01:36.393Z,58.33
2022-07-29T09:02:31.103Z,57.85
2022-07-29T09:03:30.143Z,57.69
2022-07-29T09:04:30.123Z,60.26
2022-07-29T09:05:30.169Z,52.53
2022-07-29T09:06:30.136Z,55.11
2022-07-29T09:07:34.783Z,55.91
2022-07-29T09:08:30.113Z,53.01
2022-07-29T09:09:30.045Z,54.95
2022-07-29T09:10:30.071Z,54.30
2022-07-29T09:11:30.060Z,56.56
2022-07-29T09:12:32.715Z,57.69
2022-07-29T09:13:31.272Z,62.52
2022-07-29T09:14:30.994Z,56.40
2022-07-29T09:15:30.012Z,59.78
2022-07-29T09:16:51.798Z,53.82
2022-07-29T09:17:32.048Z,55.59
2022-07-29T09:18:31.121Z,53.33
2022-07-29T09:19:29.979Z,53.01
2022-07-29T09:20:29.977Z,51.88
2022-07-29T09:21:29.992Z,56.07
2022-07-29T09:22:29.961Z,54.95
2022-07-29T09:23:30.004Z,52.53
2022-07-29T09:24:30.961Z,49.31
2022-07-29T09:25:29.960Z,55.75
2022-07-29T09:26:29.956Z,55.59
2022-07-29T09:27:29.973Z,54.30
2022-07-29T09:28:30.063Z,55.27
2022-07-29T09:29:33.310Z,55.59
2022-07-29T09:30:32.077Z,54.62
2022-07-29T09:31:29.993Z,54.30
2022-07-29T09:32:29.890Z,53.01
2022-07-29T09:33:29.922Z,54.46
2022-07-29T09:34:29.910Z,58.49
2022-07-29T09:35:29.903Z,58.49
2022-07-29T09:36:29.995Z,55.11
2022-07-29T09:37:29.866Z,55.75
2022-07-29T09:38:30.066Z,54.62
2022-07-29T09:39:29.886Z,52.69
2022-07-29T09:40:29.873Z,50.27
2022-07-29T09:41:29.969Z,51.72
2022-07-29T09:42:30.004Z,61.55
2022-07-29T09:43:29.865Z,54.14
2022-07-29T09:44:29.878Z,56.24
2022-07-29T09:45:29.889Z,53.33
2022-07-29T09:46:29.870Z,54.79
2022-07-29T09:47:29.828Z,51.56
2022-07-29T09:48:29.776Z,55.91
2022-07-29T09:49:29.876Z,55.11
2022-07-29T09:50:29.793Z,55.59
2022-07-29T09:51:38.077Z,53.33
2022-07-29T09:52:31.775Z,56.24
2022-07-29T09:53:29.750Z,53.33
2022-07-29T09:54:29.949Z,57.69
2022-07-29T09:55:29.766Z,63.33
2022-07-29T09:56:29.803Z,53.17
2022-07-29T09:57:31.115Z,54.14
2022-07-29T09:58:30.744Z,56.72
2022-07-29T09:59:30.683Z,58.33
2022-07-29T10:00:29.807Z,54.46
2022-07-29T10:01:29.917Z,55.91
2022-07-29T10:02:29.749Z,53.50
2022-07-29T10:03:29.786Z,58.97
2022-07-29T10:04:29.678Z,54.62
2022-07-29T10:05:36.803Z,56.07
2022-07-29T10:06:30.690Z,55.75
2022-07-29T10:07:29.663Z,49.15
2022-07-29T10:08:29.764Z,55.75
2022-07-29T10:09:29.650Z,55.91
2022-07-29T10:10:29.727Z,55.75
2022-07-29T10:11:35.409Z,56.07
2022-07-29T10:12:30.611Z,56.07
2022-07-29T10:13:29.643Z,56.40
2022-07-29T10:14:29.672Z,53.82
2022-07-29T10:15:29.602Z,56.40
2022-07-29T10:16:29.688Z,59.46
2022-07-29T10:17:29.582Z,58.01
2022-07-29T10:18:29.600Z,57.52
2022-07-29T10:19:29.569Z,58.01
2022-07-29T10:20:29.590Z,59.14
2022-07-29T10:21:36.076Z,61.23
2022-07-29T10:22:51.880Z,57.36
2022-07-29T10:23:46.134Z,60.42
2022-07-29T10:24:30.559Z,55.75
2022-07-29T10:25:29.599Z,56.24
2022-07-29T10:26:29.513Z,55.27
2022-07-29T10:27:29.536Z,58.17
2022-07-29T10:28:29.651Z,57.20
2022-07-29T10:29:29.497Z,58.97
2022-07-29T10:30:29.509Z,57.04
2022-07-29T10:31:29.654Z,53.82
2022-07-29T10:32:29.620Z,54.95
2022-07-29T10:33:30.562Z,54.95
2022-07-29T10:34:30.500Z,54.14
2022-07-29T10:35:29.450Z,54.14
2022-07-29T10:36:29.509Z,54.79
2022-07-29T10:37:29.461Z,52.85
2022-07-29T10:38:30.523Z,64.29
2022-07-29T10:39:41.570Z,56.07
2022-07-29T10:40:30.429Z,49.95
2022-07-29T10:41:32.291Z,56.56
2022-07-29T10:42:34.084Z,53.82
2022-07-29T10:43:29.937Z,58.33
2022-07-29T10:44:29.441Z,54.14
2022-07-29T10:45:29.377Z,55.91
2022-07-29T10:46:29.479Z,55.75
2022-07-29T10:47:29.370Z,56.40
2022-07-29T10:48:29.378Z,56.56
2022-07-29T10:49:30.679Z,49.15
2022-07-29T10:50:29.340Z,65.58
2022-07-29T10:51:29.373Z,58.65
2022-07-29T10:52:30.281Z,53.66
2022-07-29T10:53:33.747Z,55.91
2022-07-29T10:54:29.379Z,51.08
2022-07-29T10:55:29.314Z,56.40
2022-07-29T10:56:29.322Z,60.42
2022-07-29T10:57:53.673Z,52.69
2022-07-29T10:58:30.296Z,56.24
2022-07-29T10:59:35.387Z,56.88
2022-07-29T11:00:30.269Z,57.20
2022-07-29T11:01:37.267Z,56.56
2022-07-29T11:02:42.476Z,51.72
2022-07-29T11:03:31.320Z,53.50
2022-07-29T11:04:29.306Z,56.56
2022-07-29T11:05:32.049Z,53.17
2022-07-29T11:06:30.255Z,56.72
2022-07-29T11:07:45.738Z,56.07
2022-07-29T11:08:30.245Z,60.10
2022-07-29T11:09:37.404Z,56.56
2022-07-29T11:10:31.322Z,56.24
2022-07-29T11:11:29.830Z,60.42
2022-07-29T11:12:29.240Z,59.78
2022-07-29T11:13:29.244Z,55.27
2022-07-29T11:14:30.200Z,53.01
2022-07-29T11:15:31.723Z,56.72
2022-07-29T11:16:29.192Z,53.01
2022-07-29T11:17:37.577Z,52.69
2022-07-29T11:18:30.211Z,62.68
2022-07-29T11:19:30.496Z,52.37
2022-07-29T11:20:29.148Z,55.43
2022-07-29T11:21:49.056Z,54.14
2022-07-29T11:22:30.201Z,57.20
2022-07-29T11:23:33.657Z,52.85
2022-07-29T11:24:30.498Z,53.17
2022-07-29T11:25:50.402Z,52.69
2022-07-29T11:26:30.114Z,54.30
2022-07-29T11:27:29.117Z,55.59
2022-07-29T11:28:29.149Z,55.91
2022-07-29T11:29:29.081Z,58.17
2022-07-29T11:30:29.085Z,57.20
2022-07-29T11:31:29.210Z,58.49
2022-07-29T11:32:29.397Z,55.43
2022-07-29T11:33:54.138Z,53.33
2022-07-29T11:34:30.104Z,54.79
2022-07-29T11:35:38.465Z,53.01
2022-07-29T11:36:30.085Z,54.79
2022-07-29T11:37:29.081Z,54.30
2022-07-29T11:38:31.898Z,51.88
2022-07-29T11:39:36.901Z,54.30
2022-07-29T11:40:30.085Z,50.92
2022-07-29T11:41:29.029Z,58.97
2022-07-29T11:42:32.838Z,60.10
2022-07-29T11:43:30.108Z,54.14
2022-07-29T11:44:29.045Z,55.11
2022-07-29T11:45:42.082Z,58.81
2022-07-29T11:46:30.086Z,54.79
2022-07-29T11:47:29.106Z,56.88
2022-07-29T11:48:32.463Z,55.27
2022-07-29T11:50:29.994Z,52.69
2022-07-29T11:51:32.774Z,53.82
2022-07-29T11:52:28.960Z,53.50
2022-07-29T11:53:33.108Z,49.63
2022-07-29T11:54:29.003Z,52.69
2022-07-29T11:55:32.241Z,55.43
2022-07-29T11:56:28.992Z,52.85
2022-07-29T11:57:36.434Z,56.24
2022-07-29T11:58:29.906Z,53.66
2022-07-29T11:59:33.536Z,55.27
2022-07-29T12:00:29.954Z,50.11
2022-07-29T12:01:28.894Z,53.66
2022-07-29T12:02:37.112Z,57.85
2022-07-29T12:03:33.254Z,54.79
2022-07-29T12:04:28.931Z,58.81
2022-07-29T12:05:36.163Z,56.24
2022-07-29T12:06:29.919Z,51.56
2022-07-29T12:07:34.746Z,53.50
2022-07-29T12:08:29.951Z,62.20
2022-07-29T12:09:28.913Z,54.79
2022-07-29T12:10:30.552Z,52.85
2022-07-29T12:11:28.829Z,52.21
2022-07-29T12:12:28.846Z,53.82
2022-07-29T12:13:37.818Z,55.43
2022-07-29T12:14:29.863Z,55.43
2022-07-29T12:15:45.632Z,55.43
2022-07-29T12:16:29.987Z,51.08
2022-07-29T12:17:30.538Z,53.01
2022-07-29T12:18:28.794Z,53.17
2022-07-29T12:19:28.868Z,52.85
2022-07-29T12:20:28.815Z,55.11
2022-07-29T12:21:29.392Z,51.40
2022-07-29T12:22:28.809Z,54.95
2022-07-29T12:23:29.507Z,49.47
2022-07-29T12:24:29.770Z,53.82
2022-07-29T12:25:32.653Z,56.72
2022-07-29T12:26:29.818Z,56.72
2022-07-29T12:27:29.622Z,52.69
2022-07-29T12:28:28.730Z,52.85
2022-07-29T12:29:33.681Z,53.66
2022-07-29T12:30:29.727Z,55.27
2022-07-29T12:31:43.140Z,51.72
2022-07-29T12:32:29.865Z,56.40
2022-07-29T12:33:28.733Z,55.91
2022-07-29T12:34:28.723Z,54.14
2022-07-29T12:35:28.731Z,55.43
2022-07-29T12:36:28.705Z,52.37
2022-07-29T12:37:33.365Z,55.43
2022-07-29T12:38:29.705Z,54.14
2022-07-29T12:39:28.670Z,55.27
2022-07-29T12:40:28.672Z,54.79
2022-07-29T12:41:28.674Z,52.69
2022-07-29T12:42:28.892Z,58.17
2022-07-29T12:43:28.669Z,53.66
2022-07-29T12:44:28.649Z,55.43
2022-07-29T12:45:28.756Z,62.52
2022-07-29T12:46:28.722Z,71.06
2022-07-29T12:47:28.641Z,59.78
2022-07-29T12:48:28.778Z,57.20
2022-07-29T12:49:28.666Z,58.01
2022-07-29T12:50:28.725Z,58.01
2022-07-29T12:51:28.618Z,57.20
2022-07-29T12:52:28.618Z,53.98
2022-07-29T12:53:28.578Z,53.17